createdAt,value
2019-03-28T00:02:20.583Z,27.00
2019-03-28T00:04:50.913Z,27.00
2019-03-28T00:07:24.118Z,27.00
2019-03-28T00:09:53.597Z,27.00
2019-03-28T00:12:23.897Z,27.00
2019-03-28T00:14:54.713Z,26.90
2019-03-28T00:17:25.158Z,27.00
2019-03-28T00:19:55.627Z,27.00
2019-03-28T00:22:44.006Z,26.90
2019-03-28T00:25:15.063Z,27.00
2019-03-28T00:27:46.254Z,27.00
2019-03-28T00:30:19.177Z,27.00
2019-03-28T00:32:51.385Z,27.00
2019-03-28T00:35:22.719Z,27.00
2019-03-28T00:37:53.117Z,27.00
2019-03-28T00:40:23.436Z,27.00
2019-03-28T00:42:53.798Z,27.00
2019-03-28T00:45:24.098Z,27.00
2019-03-28T00:47:54.407Z,27.00
2019-03-28T00:50:25.674Z,27.00
2019-03-28T00:52:56.523Z,27.00
2019-03-28T00:55:26.851Z,27.00
2019-03-28T00:57:57.165Z,27.00
2019-03-28T01:00:27.542Z,27.00
2019-03-28T01:02:57.946Z,27.00
2019-03-28T01:05:28.275Z,27.00
2019-03-28T01:07:58.570Z,27.00
2019-03-28T01:10:28.935Z,27.00
2019-03-28T01:12:59.243Z,27.00
2019-03-28T01:15:29.574Z,27.40
2019-03-28T01:17:59.898Z,27.00
2019-03-28T01:20:30.198Z,27.00
2019-03-28T01:23:01.117Z,27.00
2019-03-28T01:25:32.498Z,27.00
2019-03-28T01:28:02.825Z,27.00
2019-03-28T01:30:33.127Z,27.00
2019-03-28T01:33:05.487Z,27.00
2019-03-28T01:35:35.807Z,27.00
2019-03-28T01:38:06.198Z,27.00
2019-03-28T01:40:36.498Z,26.90
2019-03-28T01:43:06.864Z,27.00
2019-03-28T01:45:38.134Z,27.00
2019-03-28T01:48:08.470Z,27.00
2019-03-28T01:50:38.969Z,26.90
2019-03-28T01:53:09.347Z,27.00
2019-03-28T01:55:39.730Z,26.90
2019-03-28T01:58:10.031Z,27.40
2019-03-28T02:00:40.326Z,27.00
2019-03-28T02:03:11.304Z,27.00
2019-03-28T02:05:41.817Z,26.90
2019-03-28T02:08:12.167Z,27.00
2019-03-28T02:10:42.482Z,27.00
2019-03-28T02:13:12.863Z,27.00
2019-03-28T02:15:43.208Z,27.00
2019-03-28T02:18:13.716Z,27.00
2019-03-28T02:20:44.010Z,27.00
2019-03-28T02:23:15.654Z,27.00
2019-03-28T02:25:46.714Z,27.00
2019-03-28T02:28:17.062Z,27.00
2019-03-28T02:30:47.425Z,27.00
2019-03-28T02:33:19.389Z,27.00
2019-03-28T02:35:49.724Z,26.90
2019-03-28T02:38:20.061Z,26.90
2019-03-28T02:40:50.376Z,26.90
2019-03-28T02:43:20.811Z,27.00
2019-03-28T02:45:51.424Z,27.00
2019-03-28T02:48:22.174Z,27.00
2019-03-28T02:50:52.498Z,26.90
2019-03-28T02:53:22.871Z,26.90
2019-03-28T02:55:53.183Z,27.00
2019-03-28T02:58:23.571Z,26.90
2019-03-28T03:00:53.909Z,26.90
2019-03-28T03:03:24.351Z,26.90
2019-03-28T03:05:54.986Z,26.90
2019-03-28T03:08:25.341Z,26.90
2019-03-28T03:10:55.730Z,27.00
2019-03-28T03:13:26.083Z,27.00
2019-03-28T03:15:56.957Z,27.00
2019-03-28T03:18:27.722Z,26.90
2019-03-28T03:20:58.030Z,26.90
2019-03-28T03:23:29.079Z,27.00
2019-03-28T03:25:59.627Z,27.00
2019-03-28T03:28:30.448Z,27.00
2019-03-28T03:31:01.185Z,26.90
2019-03-28T03:33:32.698Z,27.00
2019-03-28T03:36:03.039Z,27.00
2019-03-28T03:38:33.398Z,27.00
2019-03-28T03:41:03.831Z,27.00
2019-03-28T03:43:34.247Z,27.00
2019-03-28T03:46:04.627Z,26.90
2019-03-28T03:48:35.061Z,26.90
2019-03-28T03:51:05.359Z,27.00
2019-03-28T03:53:35.794Z,26.90
2019-03-28T03:56:06.152Z,26.90
2019-03-28T03:58:36.591Z,27.00
2019-03-28T04:01:07.036Z,27.00
2019-03-28T04:03:37.385Z,26.90
2019-03-28T04:06:08.589Z,26.90
2019-03-28T04:08:38.978Z,27.00
2019-03-28T04:11:09.324Z,26.90
2019-03-28T04:13:39.674Z,27.00
2019-03-28T04:16:10.043Z,27.00
2019-03-28T04:18:40.350Z,27.00
2019-03-28T04:21:10.720Z,27.00
2019-03-28T04:23:41.027Z,27.00
2019-03-28T04:26:13.434Z,27.00
2019-03-28T04:28:45.604Z,27.00
2019-03-28T04:31:15.936Z,27.00
2019-03-28T04:33:47.856Z,27.00
2019-03-28T04:36:18.158Z,26.90
2019-03-28T04:38:48.479Z,26.90
2019-03-28T04:41:19.158Z,26.90
2019-03-28T04:43:49.504Z,26.90
2019-03-28T04:46:19.854Z,26.90
2019-03-28T04:48:50.837Z,27.00
2019-03-28T04:51:21.633Z,26.90
2019-03-28T04:53:51.969Z,27.00
2019-03-28T04:56:22.297Z,26.90
2019-03-28T04:58:52.618Z,27.00
2019-03-28T05:01:22.970Z,27.00
2019-03-28T05:03:53.320Z,27.00
2019-03-28T05:06:24.293Z,27.00
2019-03-28T05:08:54.866Z,27.00
2019-03-28T05:11:25.276Z,27.00
2019-03-28T05:13:55.618Z,27.00
2019-03-28T05:16:26.459Z,27.00
2019-03-28T05:18:57.537Z,26.90
2019-03-28T05:21:27.929Z,26.90
2019-03-28T05:23:58.257Z,27.00
2019-03-28T05:26:28.639Z,26.90
2019-03-28T05:28:59.483Z,26.90
2019-03-28T05:31:30.855Z,26.60
2019-03-28T05:34:02.446Z,26.90
2019-03-28T05:36:32.856Z,26.80
2019-03-28T05:39:04.235Z,26.90
2019-03-28T05:41:34.606Z,26.90
2019-03-28T05:44:05.189Z,26.80
2019-03-28T05:46:35.554Z,26.80
2019-03-28T05:49:06.444Z,26.80
2019-03-28T05:51:36.759Z,26.90
2019-03-28T05:54:07.175Z,26.90
2019-03-28T05:56:37.522Z,26.90
2019-03-28T05:59:11.217Z,26.80
2019-03-28T06:01:40.027Z,26.80
2019-03-28T06:04:10.631Z,26.80
2019-03-28T06:06:40.967Z,26.80
2019-03-28T06:09:11.343Z,26.80
2019-03-28T06:11:43.450Z,26.80
2019-03-28T06:14:13.966Z,26.90
2019-03-28T06:16:44.435Z,26.80
2019-03-28T06:19:14.856Z,26.80
2019-03-28T06:21:45.225Z,26.80
2019-03-28T06:24:15.577Z,26.80
2019-03-28T06:26:46.209Z,26.80
2019-03-28T06:29:23.629Z,26.80
2019-03-28T06:31:55.584Z,26.80
2019-03-28T06:34:23.547Z,26.80
2019-03-28T06:36:54.036Z,26.90
2019-03-28T06:39:25.742Z,26.80
2019-03-28T06:41:56.058Z,26.80
2019-03-28T06:44:26.473Z,26.80
2019-03-28T06:46:56.809Z,26.80
2019-03-28T06:49:27.178Z,26.80
2019-03-28T06:51:57.531Z,26.80
2019-03-28T06:54:28.106Z,26.90
2019-03-28T06:56:58.650Z,26.90
2019-03-28T06:59:37.186Z,26.80
2019-03-28T07:02:01.066Z,26.80
2019-03-28T07:04:31.494Z,26.80
2019-03-28T07:07:01.920Z,26.80
2019-03-28T07:09:33.026Z,26.70
2019-03-28T07:12:05.018Z,26.40
2019-03-28T07:14:35.497Z,26.80
2019-03-28T07:17:05.906Z,27.00
2019-03-28T07:19:36.259Z,27.10
2019-03-28T07:22:06.707Z,27.20
2019-03-28T07:24:37.642Z,27.10
2019-03-28T07:27:08.338Z,27.00
2019-03-28T07:29:50.140Z,27.00
2019-03-28T07:32:12.703Z,26.90
2019-03-28T07:34:43.438Z,26.80
2019-03-28T07:37:13.910Z,26.80
2019-03-28T07:39:44.398Z,26.80
2019-03-28T07:42:15.562Z,26.70
2019-03-28T07:44:46.990Z,26.70
2019-03-28T07:47:17.385Z,26.70
2019-03-28T07:49:47.783Z,26.80
2019-03-28T07:52:20.086Z,26.80
2019-03-28T07:55:02.091Z,26.80
2019-03-28T07:57:32.453Z,26.80
2019-03-28T08:00:05.416Z,26.80
2019-03-28T08:02:35.818Z,26.80
2019-03-28T08:05:08.125Z,26.80
2019-03-28T08:07:44.911Z,26.80
2019-03-28T08:10:11.212Z,26.80
2019-03-28T08:12:41.607Z,26.80
2019-03-28T08:15:13.725Z,26.70
2019-03-28T08:17:44.313Z,26.80
2019-03-28T08:20:15.466Z,26.80
2019-03-28T08:22:45.854Z,26.80
2019-03-28T08:25:16.484Z,26.80
2019-03-28T08:27:46.819Z,26.80
2019-03-28T08:30:19.715Z,26.80
2019-03-28T08:32:51.935Z,26.90
2019-03-28T08:35:22.358Z,26.90
2019-03-28T08:37:53.009Z,26.90
2019-03-28T08:40:39.595Z,26.80
2019-03-28T08:43:10.943Z,26.80
2019-03-28T08:45:44.756Z,26.80
2019-03-28T08:48:16.747Z,26.80
2019-03-28T08:50:47.387Z,26.80
2019-03-28T08:53:17.774Z,26.90
2019-03-28T08:55:48.106Z,26.80
2019-03-28T08:58:18.431Z,26.90
2019-03-28T09:00:53.088Z,26.80
2019-03-28T09:03:21.091Z,26.90
2019-03-28T09:06:02.696Z,26.90
2019-03-28T09:08:33.186Z,26.90
2019-03-28T09:11:04.151Z,26.90
2019-03-28T09:13:34.479Z,26.90
2019-03-28T09:16:04.958Z,26.90
2019-03-28T09:18:36.019Z,27.00
2019-03-28T09:21:06.777Z,27.00
2019-03-28T09:23:39.272Z,27.00
2019-03-28T09:26:13.984Z,27.10
2019-03-28T09:28:49.293Z,27.10
2019-03-28T09:31:20.563Z,27.20
2019-03-28T09:33:52.795Z,27.30
2019-03-28T09:36:25.192Z,27.30
2019-03-28T09:38:57.099Z,27.20
2019-03-28T09:41:28.509Z,27.30
2019-03-28T09:44:00.608Z,27.40
2019-03-28T09:46:32.470Z,27.40
2019-03-28T09:49:06.148Z,27.30
2019-03-28T09:51:36.890Z,27.40
2019-03-28T09:54:07.246Z,27.40
2019-03-28T09:56:39.010Z,27.40
2019-03-28T09:59:09.626Z,27.40
2019-03-28T10:01:40.670Z,27.40
2019-03-28T10:04:11.074Z,27.50
2019-03-28T10:06:41.430Z,27.50
2019-03-28T10:09:13.180Z,27.50
2019-03-28T10:11:43.507Z,27.50
2019-03-28T10:14:13.893Z,27.50
2019-03-28T10:16:44.254Z,27.60
2019-03-28T10:19:14.899Z,27.60
2019-03-28T10:21:45.225Z,27.60
2019-03-28T10:24:16.926Z,27.50
2019-03-28T10:26:48.806Z,27.60
2019-03-28T10:29:19.517Z,27.60
2019-03-28T10:31:51.647Z,27.60
2019-03-28T10:34:23.035Z,27.60
2019-03-28T10:36:53.361Z,27.60
2019-03-28T10:39:23.782Z,27.70
2019-03-28T10:41:54.874Z,27.80
2019-03-28T10:44:25.534Z,27.80
2019-03-28T10:47:07.513Z,27.70
2019-03-28T10:49:38.660Z,27.80
2019-03-28T10:52:11.836Z,27.80
2019-03-28T10:54:41.076Z,27.80
2019-03-28T10:57:15.510Z,27.80
2019-03-28T10:59:43.573Z,27.80
2019-03-28T11:02:14.092Z,27.90
2019-03-28T11:04:44.419Z,27.90
2019-03-28T11:07:14.911Z,27.90
2019-03-28T11:09:45.304Z,27.90
2019-03-28T11:12:16.487Z,28.00
2019-03-28T11:14:48.705Z,27.90
2019-03-28T11:17:19.122Z,27.90
2019-03-28T11:19:49.509Z,27.90
2019-03-28T11:22:20.122Z,27.90
2019-03-28T11:24:50.539Z,27.90
2019-03-28T11:27:21.219Z,27.90
2019-03-28T11:29:51.613Z,27.90
2019-03-28T11:32:23.303Z,27.90
2019-03-28T11:34:53.706Z,27.80
2019-03-28T11:37:26.331Z,27.80
2019-03-28T11:39:56.257Z,27.80
2019-03-28T11:42:27.760Z,27.80
2019-03-28T11:44:58.331Z,27.90
2019-03-28T11:47:31.264Z,28.10
2019-03-28T11:50:01.674Z,28.10
2019-03-28T11:52:32.033Z,28.20
2019-03-28T11:55:02.439Z,28.20
2019-03-28T11:57:32.923Z,28.20
2019-03-28T12:00:04.861Z,28.20
2019-03-28T12:02:35.993Z,28.40
2019-03-28T12:05:08.702Z,28.40
2019-03-28T12:07:39.328Z,28.40
2019-03-28T12:10:11.520Z,28.40
2019-03-28T12:12:42.034Z,28.30
2019-03-28T12:15:13.303Z,28.40
2019-03-28T12:17:44.086Z,28.30
2019-03-28T12:20:15.266Z,28.40
2019-03-28T12:22:57.258Z,28.40
2019-03-28T12:25:28.745Z,28.40
2019-03-28T12:28:00.491Z,28.40
2019-03-28T12:30:31.520Z,28.50
2019-03-28T12:33:03.646Z,28.50
2019-03-28T12:35:34.370Z,28.50
2019-03-28T12:38:05.935Z,28.50
2019-03-28T12:40:36.614Z,28.50
2019-03-28T12:43:07.138Z,28.80
2019-03-28T12:45:37.486Z,28.40
2019-03-28T12:48:08.657Z,28.30
2019-03-28T12:50:39.009Z,28.40
2019-03-28T12:53:10.935Z,28.40
2019-03-28T12:55:43.315Z,28.40
2019-03-28T12:58:16.071Z,28.30
2019-03-28T13:00:48.343Z,28.40
2019-03-28T13:03:20.019Z,28.40
2019-03-28T13:05:50.655Z,28.40
2019-03-28T13:08:20.996Z,28.50
2019-03-28T13:10:53.607Z,28.60
2019-03-28T13:13:26.328Z,28.80
2019-03-28T13:15:58.509Z,28.70
2019-03-28T13:18:30.198Z,28.70
2019-03-28T13:21:12.843Z,28.70
2019-03-28T13:23:34.699Z,28.70
2019-03-28T13:26:05.347Z,28.70
2019-03-28T13:28:35.744Z,28.70
2019-03-28T13:31:06.157Z,28.60
2019-03-28T13:33:37.643Z,28.60
2019-03-28T13:36:08.065Z,28.60
2019-03-28T13:38:38.533Z,28.60
2019-03-28T13:41:09.064Z,28.50
2019-03-28T13:43:41.189Z,28.60
2019-03-28T13:46:11.622Z,28.50
2019-03-28T13:48:41.983Z,28.40
2019-03-28T13:51:12.414Z,28.40
2019-03-28T13:53:42.855Z,28.40
2019-03-28T13:56:13.384Z,28.60
2019-03-28T13:58:44.528Z,28.30
2019-03-28T14:01:14.902Z,28.30
2019-03-28T14:03:46.012Z,28.30
2019-03-28T14:06:16.482Z,28.30
